createdAt,value
2023-02-25T00:01:40.343Z,9.08
2023-02-25T00:04:07.525Z,9.39
2023-02-25T00:06:34.104Z,7.74
2023-02-25T00:09:01.135Z,8.26
2023-02-25T00:11:28.367Z,9.64
2023-02-25T00:13:55.542Z,9.58
2023-02-25T00:16:24.127Z,9.03
2023-02-25T00:18:55.662Z,9.72
2023-02-25T00:21:23.280Z,9.43
2023-02-25T00:23:50.788Z,8.49
2023-02-25T00:26:18.213Z,8.74
2023-02-25T00:28:45.221Z,9.35
2023-02-25T00:31:23.093Z,7.70
2023-02-25T00:33:50.993Z,8.55
2023-02-25T00:36:23.406Z,7.75
2023-02-25T00:38:51.583Z,8.50
2023-02-25T00:41:20.925Z,7.66
2023-02-25T00:43:53.147Z,7.75
2023-02-25T00:46:20.330Z,8.88
2023-02-25T00:48:47.461Z,9.04
2023-02-25T00:51:17.593Z,9.56
2023-02-25T00:53:44.917Z,9.54
2023-02-25T00:56:17.447Z,10.01
2023-02-25T00:58:45.530Z,10.05
2023-02-25T01:01:20.325Z,9.25
2023-02-25T01:03:48.822Z,9.57
2023-02-25T01:06:15.943Z,10.07
2023-02-25T01:08:43.292Z,9.59
2023-02-25T01:11:12.533Z,9.41
2023-02-25T01:13:39.248Z,9.72
2023-02-25T01:16:14.547Z,8.39
2023-02-25T01:18:41.953Z,9.25
2023-02-25T01:21:17.714Z,9.23
2023-02-25T01:23:49.171Z,9.55
2023-02-25T01:26:16.381Z,9.63
2023-02-25T01:28:43.048Z,9.82
2023-02-25T01:31:24.837Z,7.97
2023-02-25T01:33:51.908Z,8.08
2023-02-25T01:36:18.613Z,8.61
2023-02-25T01:38:45.196Z,9.15
2023-02-25T01:41:11.926Z,8.56
2023-02-25T01:43:38.592Z,9.30
2023-02-25T01:46:05.206Z,9.33
2023-02-25T01:48:36.214Z,8.59
2023-02-25T01:51:09.518Z,9.02
2023-02-25T01:53:44.320Z,9.45
2023-02-25T01:56:14.576Z,9.80
2023-02-25T01:58:41.932Z,9.58
2023-02-25T02:01:14.530Z,9.74
2023-02-25T02:03:42.607Z,9.85
2023-02-25T02:06:21.478Z,9.73
2023-02-25T02:08:49.340Z,9.90
2023-02-25T02:11:17.118Z,9.72
2023-02-25T02:13:51.070Z,9.43
2023-02-25T02:16:17.691Z,9.56
2023-02-25T02:18:50.641Z,9.66
2023-02-25T02:21:46.257Z,9.94
2023-02-25T02:24:58.903Z,9.52
2023-02-25T02:27:50.099Z,9.72
2023-02-25T02:30:50.356Z,9.88
2023-02-25T02:33:26.467Z,9.18
2023-02-25T02:36:13.226Z,9.43
2023-02-25T02:38:42.581Z,9.88
2023-02-25T02:41:50.952Z,9.38
2023-02-25T02:44:42.851Z,9.79
2023-02-25T02:47:28.050Z,9.71
2023-02-25T02:50:24.697Z,9.58
2023-02-25T02:52:56.552Z,9.72
2023-02-25T02:55:27.770Z,9.92
2023-02-25T02:58:00.795Z,9.89
2023-02-25T03:00:33.815Z,9.25
2023-02-25T03:03:16.867Z,9.66
2023-02-25T03:05:49.647Z,9.72
2023-02-25T03:08:28.540Z,9.64
2023-02-25T03:10:55.249Z,9.45
2023-02-25T03:13:22.522Z,9.82
2023-02-25T03:15:50.127Z,9.84
2023-02-25T03:18:36.124Z,8.55
2023-02-25T03:21:11.954Z,9.07
2023-02-25T03:23:43.044Z,9.60
2023-02-25T03:26:30.212Z,8.83
2023-02-25T03:28:56.945Z,8.56
2023-02-25T03:31:42.889Z,8.24
2023-02-25T03:34:12.204Z,8.26
2023-02-25T03:37:02.275Z,8.37
2023-02-25T03:39:33.407Z,8.87
2023-02-25T03:42:03.729Z,9.33
2023-02-25T03:44:37.833Z,8.74
2023-02-25T03:47:08.087Z,9.31
2023-02-25T03:49:42.039Z,9.61
2023-02-25T03:52:14.964Z,9.78
2023-02-25T03:54:41.648Z,8.86
2023-02-25T03:57:08.739Z,9.16
2023-02-25T03:59:35.446Z,9.65
2023-02-25T04:02:03.020Z,9.81
2023-02-25T04:04:29.666Z,9.83
2023-02-25T04:06:56.408Z,9.80
2023-02-25T04:09:23.186Z,9.86
2023-02-25T04:11:49.809Z,9.95
2023-02-25T04:14:18.367Z,9.31
2023-02-25T04:16:45.164Z,9.20
2023-02-25T04:19:11.757Z,9.41
2023-02-25T04:21:39.491Z,9.63
2023-02-25T04:24:11.101Z,9.58
2023-02-25T04:26:41.783Z,9.74
2023-02-25T04:29:11.996Z,9.80
2023-02-25T04:31:38.834Z,9.78
2023-02-25T04:34:05.596Z,8.01
2023-02-25T04:36:34.567Z,8.85
2023-02-25T04:39:04.486Z,9.36
2023-02-25T04:41:34.916Z,9.33
2023-02-25T04:44:04.227Z,9.84
2023-02-25T04:46:32.508Z,9.64
2023-02-25T04:48:59.610Z,8.64
2023-02-25T04:51:26.559Z,9.07
2023-02-25T04:53:53.742Z,9.41
2023-02-25T04:56:20.724Z,9.08
2023-02-25T04:58:47.438Z,9.35
2023-02-25T05:01:14.271Z,9.52
2023-02-25T05:03:41.392Z,8.78
2023-02-25T05:06:08.621Z,8.73
2023-02-25T05:08:35.970Z,8.87
2023-02-25T05:11:03.809Z,9.28
2023-02-25T05:13:30.944Z,9.24
2023-02-25T05:16:25.034Z,9.27
2023-02-25T05:18:52.616Z,9.48
2023-02-25T05:21:22.668Z,9.64
2023-02-25T05:23:51.163Z,9.41
2023-02-25T05:26:22.122Z,9.49
2023-02-25T05:28:58.384Z,9.56
2023-02-25T05:31:26.105Z,9.69
2023-02-25T05:33:53.252Z,9.78
2023-02-25T05:36:20.014Z,9.64
2023-02-25T05:38:46.723Z,9.55
2023-02-25T05:41:14.883Z,9.61
2023-02-25T05:43:41.951Z,8.93
2023-02-25T05:46:13.196Z,9.60
2023-02-25T05:48:41.938Z,9.52
2023-02-25T05:51:12.864Z,9.67
2023-02-25T05:53:39.746Z,9.83
2023-02-25T05:56:08.583Z,7.56
2023-02-25T05:58:35.498Z,8.50
2023-02-25T06:01:16.598Z,9.30
2023-02-25T06:03:45.017Z,9.45
2023-02-25T06:06:13.323Z,9.78
2023-02-25T06:08:41.910Z,9.95
2023-02-25T06:11:10.835Z,9.88
2023-02-25T06:13:37.454Z,8.97
2023-02-25T06:16:05.237Z,9.51
2023-02-25T06:18:36.741Z,9.34
2023-02-25T06:21:08.599Z,9.69
2023-02-25T06:23:36.378Z,9.53
2023-02-25T06:26:05.003Z,7.77
2023-02-25T06:28:32.936Z,8.92
2023-02-25T06:31:00.351Z,9.02
2023-02-25T06:33:29.136Z,8.37
2023-02-25T06:35:55.927Z,8.91
2023-02-25T06:38:22.704Z,9.96
2023-02-25T06:40:49.851Z,10.20
2023-02-25T06:43:17.218Z,9.41
2023-02-25T06:45:44.235Z,9.95
2023-02-25T06:48:11.026Z,10.06
2023-02-25T06:50:41.768Z,9.04
2023-02-25T06:53:08.859Z,8.43
2023-02-25T06:55:38.039Z,8.16
2023-02-25T06:58:04.630Z,8.63
2023-02-25T07:00:31.874Z,9.21
2023-02-25T07:02:58.589Z,9.87
2023-02-25T07:05:25.293Z,10.17
2023-02-25T07:07:51.911Z,9.70
2023-02-25T07:10:18.591Z,10.40
2023-02-25T07:12:45.208Z,10.64
2023-02-25T07:15:11.932Z,10.59
2023-02-25T07:17:39.770Z,10.66
2023-02-25T07:20:07.077Z,10.73
2023-02-25T07:22:33.677Z,10.87
2023-02-25T07:25:00.696Z,10.02
2023-02-25T07:27:27.376Z,10.52
2023-02-25T07:29:55.050Z,11.17
2023-02-25T07:32:24.684Z,10.52
2023-02-25T07:34:51.442Z,10.26
2023-02-25T07:37:18.022Z,11.07
2023-02-25T07:39:47.371Z,10.49
2023-02-25T07:42:14.266Z,11.02
2023-02-25T07:44:41.052Z,11.02
2023-02-25T07:47:07.691Z,10.64
2023-02-25T07:49:34.389Z,11.19
2023-02-25T07:52:00.962Z,11.17
2023-02-25T07:54:27.795Z,11.08
2023-02-25T07:56:54.423Z,11.10
2023-02-25T07:59:21.023Z,11.50
2023-02-25T08:01:47.779Z,10.71
2023-02-25T08:04:17.403Z,9.99
2023-02-25T08:06:44.087Z,10.89
2023-02-25T08:09:12.406Z,11.65
2023-02-25T08:11:40.340Z,10.07
2023-02-25T08:14:07.201Z,9.60
2023-02-25T08:16:34.042Z,10.88
2023-02-25T08:19:00.961Z,11.31
2023-02-25T08:21:27.816Z,11.74
2023-02-25T08:23:54.709Z,11.74
2023-02-25T08:26:22.776Z,11.74
2023-02-25T08:28:50.799Z,12.18
2023-02-25T08:31:18.501Z,11.64
2023-02-25T08:33:49.649Z,11.47
2023-02-25T08:36:29.059Z,11.96
2023-02-25T08:38:59.753Z,11.61
2023-02-25T08:41:28.338Z,11.17
2023-02-25T08:43:57.188Z,11.35
2023-02-25T08:46:25.403Z,12.07
2023-02-25T08:48:53.836Z,12.30
2023-02-25T08:51:22.889Z,11.90
2023-02-25T08:53:50.671Z,11.16
2023-02-25T08:56:17.924Z,11.82
2023-02-25T08:58:44.755Z,11.97
2023-02-25T09:01:15.392Z,12.15
2023-02-25T09:03:53.263Z,12.62
2023-02-25T09:06:22.522Z,11.49
2023-02-25T09:08:50.648Z,11.31
2023-02-25T09:11:17.953Z,12.02
2023-02-25T09:13:44.601Z,11.87
2023-02-25T09:16:11.890Z,11.82
2023-02-25T09:18:42.173Z,12.37
2023-02-25T09:21:10.778Z,11.92
2023-02-25T09:23:37.770Z,12.01
2023-02-25T09:26:05.873Z,12.13
2023-02-25T09:28:32.763Z,11.49
2023-02-25T09:30:59.630Z,12.22
2023-02-25T09:33:26.673Z,13.08
2023-02-25T09:35:53.324Z,13.01
2023-02-25T09:38:20.581Z,13.37
2023-02-25T09:40:49.184Z,12.88
2023-02-25T09:43:20.694Z,12.70
2023-02-25T09:45:50.908Z,12.93
2023-02-25T09:48:20.858Z,11.94
2023-02-25T09:50:53.054Z,12.18
2023-02-25T09:53:37.002Z,12.23
2023-02-25T09:56:06.897Z,11.53
2023-02-25T09:58:43.576Z,12.34
2023-02-25T10:01:10.130Z,12.31
2023-02-25T10:04:13.955Z,13.29
2023-02-25T10:06:44.448Z,14.02
2023-02-25T10:09:38.942Z,14.74
2023-02-25T10:12:20.936Z,14.59
2023-02-25T10:14:56.377Z,14.44
2023-02-25T10:17:47.171Z,14.14
2023-02-25T10:20:35.386Z,14.68
2023-02-25T10:23:27.945Z,14.53
2023-02-25T10:26:07.356Z,14.47
2023-02-25T10:28:35.857Z,14.90
2023-02-25T10:31:05.157Z,15.25
2023-02-25T10:33:36.984Z,15.02
2023-02-25T10:36:10.474Z,15.29
2023-02-25T10:38:42.220Z,15.28
2023-02-25T10:41:08.873Z,15.21
2023-02-25T10:43:35.674Z,15.10
2023-02-25T10:46:09.717Z,15.08
2023-02-25T10:48:38.252Z,15.41
2023-02-25T10:51:06.872Z,15.48
2023-02-25T10:53:34.351Z,15.10
2023-02-25T10:56:02.386Z,14.88
2023-02-25T10:58:36.625Z,14.89
2023-02-25T11:01:04.369Z,15.17
2023-02-25T11:03:33.505Z,15.30
2023-02-25T11:06:34.843Z,15.35
2023-02-25T11:09:04.397Z,15.30
2023-02-25T11:11:39.000Z,15.51
2023-02-25T11:14:15.633Z,15.02
2023-02-25T11:16:45.574Z,15.67
2023-02-25T11:19:25.354Z,15.52
2023-02-25T11:21:53.101Z,15.48
2023-02-25T11:24:31.568Z,15.44
2023-02-25T11:26:58.748Z,15.33
2023-02-25T11:29:43.473Z,15.65
2023-02-25T11:32:18.415Z,15.61
2023-02-25T11:34:50.737Z,15.66
2023-02-25T11:37:45.334Z,15.51
2023-02-25T11:40:33.925Z,15.17
2023-02-25T11:43:01.836Z,15.35
2023-02-25T11:46:03.490Z,15.31
2023-02-25T11:48:47.564Z,15.58
2023-02-25T11:51:30.452Z,15.57
2023-02-25T11:54:17.923Z,15.31
2023-02-25T11:56:51.023Z,15.57
2023-02-25T11:59:20.529Z,15.42
2023-02-25T12:02:00.189Z,15.50
2023-02-25T12:04:45.460Z,15.66
2023-02-25T12:07:30.147Z,15.62
2023-02-25T12:10:40.487Z,15.53
2023-02-25T12:13:25.480Z,15.74
2023-02-25T12:16:20.493Z,15.25
2023-02-25T12:19:17.941Z,15.73
2023-02-25T12:22:28.897Z,15.94
2023-02-25T12:25:28.456Z,15.64
2023-02-25T12:28:06.732Z,15.46
2023-02-25T12:30:35.953Z,15.68
2023-02-25T12:33:31.890Z,15.92
2023-02-25T12:36:00.465Z,16.09
2023-02-25T12:38:41.425Z,15.44
2023-02-25T12:41:15.619Z,15.54
2023-02-25T12:43:54.368Z,15.93
2023-02-25T12:46:45.561Z,15.79
2023-02-25T12:49:49.643Z,15.70
2023-02-25T12:52:27.912Z,15.75
2023-02-25T12:55:00.185Z,15.77
2023-02-25T12:57:39.565Z,15.80
2023-02-25T13:00:37.201Z,15.72
2023-02-25T13:03:27.282Z,15.89
2023-02-25T13:06:23.264Z,16.14
2023-02-25T13:08:53.262Z,15.93
2023-02-25T13:12:11.389Z,16.17
2023-02-25T13:14:38.534Z,15.83
2023-02-25T13:17:20.669Z,16.35
2023-02-25T13:20:06.157Z,16.25
2023-02-25T13:22:53.938Z,15.96
2023-02-25T13:25:47.914Z,16.30
2023-02-25T13:28:25.803Z,16.15
2023-02-25T13:31:19.389Z,15.89
2023-02-25T13:34:11.712Z,16.00
2023-02-25T13:37:18.674Z,16.40
2023-02-25T13:39:45.389Z,16.51
2023-02-25T13:42:34.978Z,16.39
2023-02-25T13:45:35.390Z,16.04
2023-02-25T13:48:25.995Z,16.33
2023-02-25T13:50:56.856Z,16.08
2023-02-25T13:53:32.732Z,16.09
2023-02-25T13:56:20.624Z,16.14
2023-02-25T13:59:23.113Z,16.13
2023-02-25T14:02:14.926Z,15.57
2023-02-25T14:05:03.942Z,15.94
2023-02-25T14:07:33.363Z,16.33
2023-02-25T14:10:21.541Z,16.31
2023-02-25T14:13:10.120Z,15.86
2023-02-25T14:16:00.782Z,16.13
2023-02-25T14:18:55.495Z,16.31
2023-02-25T14:21:55.595Z,16.39
2023-02-25T14:24:54.032Z,16.54
2023-02-25T14:27:26.672Z,16.13
2023-02-25T14:30:08.388Z,16.09
2023-02-25T14:33:26.499Z,16.07
2023-02-25T14:36:06.824Z,16.09
2023-02-25T14:39:03.196Z,16.09
2023-02-25T14:41:36.101Z,16.20
2023-02-25T14:44:11.030Z,16.31
2023-02-25T14:46:53.014Z,16.35
2023-02-25T14:49:42.845Z,15.72
2023-02-25T14:52:40.001Z,15.67
2023-02-25T14:55:27.628Z,15.62
2023-02-25T14:58:16.810Z,15.67
2023-02-25T15:00:55.095Z,16.14
2023-02-25T15:03:59.150Z,15.36
2023-02-25T15:06:46.747Z,16.03
2023-02-25T15:09:50.784Z,15.66
2023-02-25T15:12:41.350Z,15.68
2023-02-25T15:15:45.566Z,15.83
2023-02-25T15:18:19.607Z,15.70
2023-02-25T15:20:46.857Z,15.90
2023-02-25T15:23:19.818Z,15.81
2023-02-25T15:25:50.376Z,15.86
2023-02-25T15:28:29.241Z,15.70
2023-02-25T15:31:02.270Z,15.94
2023-02-25T15:33:43.116Z,15.75
2023-02-25T15:36:15.772Z,15.94
2023-02-25T15:38:50.617Z,15.58
2023-02-25T15:41:29.366Z,15.67
2023-02-25T15:44:19.996Z,15.62
2023-02-25T15:46:48.604Z,15.63
2023-02-25T15:49:22.494Z,15.53
2023-02-25T15:51:58.895Z,15.85
2023-02-25T15:54:28.731Z,15.78
2023-02-25T15:57:04.981Z,15.72
2023-02-25T15:59:55.368Z,15.69
2023-02-25T16:02:30.694Z,15.70
2023-02-25T16:05:18.703Z,15.47
2023-02-25T16:07:49.778Z,15.59
2023-02-25T16:10:19.304Z,15.60
2023-02-25T16:12:53.045Z,15.40
2023-02-25T16:15:39.572Z,16.03
2023-02-25T16:18:21.912Z,15.76
2023-02-25T16:20:53.273Z,15.69
2023-02-25T16:23:20.626Z,15.24
2023-02-25T16:26:05.746Z,15.53
2023-02-25T16:28:45.882Z,15.79
2023-02-25T16:31:24.697Z,15.63
2023-02-25T16:33:51.431Z,15.26
2023-02-25T16:36:19.048Z,15.48
2023-02-25T16:39:10.189Z,15.44
2023-02-25T16:41:39.008Z,15.44
2023-02-25T16:44:07.490Z,15.30
2023-02-25T16:46:37.799Z,15.36
2023-02-25T16:49:11.203Z,15.24
2023-02-25T16:51:41.431Z,15.80
2023-02-25T16:54:21.122Z,15.67
2023-02-25T16:56:52.943Z,15.65
2023-02-25T16:59:21.801Z,15.65
2023-02-25T17:02:01.944Z,15.92
2023-02-25T17:04:37.752Z,15.75
2023-02-25T17:07:24.480Z,15.48
2023-02-25T17:09:53.917Z,15.47
2023-02-25T17:12:36.991Z,15.60
2023-02-25T17:15:13.668Z,15.71
2023-02-25T17:17:43.166Z,15.73
2023-02-25T17:20:24.387Z,15.43
2023-02-25T17:22:52.552Z,15.42
2023-02-25T17:25:20.870Z,15.40
2023-02-25T17:27:50.008Z,15.72
2023-02-25T17:30:36.196Z,15.54
2023-02-25T17:33:03.943Z,15.41
2023-02-25T17:35:31.352Z,15.73
2023-02-25T17:37:58.506Z,15.96
2023-02-25T17:40:29.159Z,16.10
2023-02-25T17:43:14.139Z,15.86
2023-02-25T17:46:02.786Z,15.66
2023-02-25T17:48:33.854Z,15.48
2023-02-25T17:51:06.148Z,15.27
2023-02-25T17:53:47.279Z,15.56
2023-02-25T17:56:30.208Z,15.71
2023-02-25T17:59:06.760Z,15.59
2023-02-25T18:02:30.038Z,15.42
2023-02-25T18:05:11.989Z,15.81
2023-02-25T18:07:58.629Z,15.03
2023-02-25T18:10:30.965Z,15.33
2023-02-25T18:12:59.439Z,15.46
2023-02-25T18:15:30.975Z,15.21
2023-02-25T18:18:04.088Z,15.21
2023-02-25T18:20:35.493Z,15.12
2023-02-25T18:23:09.573Z,15.44
2023-02-25T18:25:42.318Z,15.42
2023-02-25T18:28:17.509Z,15.16
2023-02-25T18:30:46.120Z,15.23
2023-02-25T18:33:13.330Z,15.18
2023-02-25T18:35:42.123Z,15.22
2023-02-25T18:38:17.012Z,15.06
2023-02-25T18:40:43.717Z,15.24
2023-02-25T18:43:17.063Z,15.36
2023-02-25T18:45:44.379Z,15.12
2023-02-25T18:48:11.475Z,15.31
2023-02-25T18:50:40.553Z,15.47
2023-02-25T18:53:11.389Z,15.07
2023-02-25T18:55:38.248Z,15.15
2023-02-25T18:58:05.034Z,15.18
2023-02-25T19:00:32.026Z,15.27
2023-02-25T19:03:03.412Z,15.23
2023-02-25T19:05:30.514Z,15.13
2023-02-25T19:07:57.566Z,15.14
2023-02-25T19:10:27.448Z,15.20
2023-02-25T19:13:03.444Z,15.16
2023-02-25T19:15:30.743Z,15.03
2023-02-25T19:17:57.408Z,15.42
2023-02-25T19:20:25.647Z,15.26
2023-02-25T19:22:53.650Z,15.24
2023-02-25T19:25:23.884Z,15.19
2023-02-25T19:27:52.029Z,15.41
2023-02-25T19:30:21.780Z,15.24
2023-02-25T19:32:48.700Z,15.30
2023-02-25T19:35:15.577Z,15.45
2023-02-25T19:37:43.496Z,15.14
2023-02-25T19:40:13.891Z,15.22
2023-02-25T19:42:42.040Z,14.79
2023-02-25T19:45:11.944Z,15.31
2023-02-25T19:47:38.615Z,15.16
2023-02-25T19:50:06.257Z,15.23
2023-02-25T19:52:41.447Z,15.02
2023-02-25T19:55:09.001Z,15.39
2023-02-25T19:57:38.464Z,15.28
2023-02-25T20:00:16.957Z,15.64
2023-02-25T20:02:43.782Z,15.31
2023-02-25T20:05:11.376Z,15.42
2023-02-25T20:07:38.223Z,14.92
2023-02-25T20:10:06.661Z,15.23
2023-02-25T20:12:33.405Z,15.34
2023-02-25T20:15:00.112Z,15.41
2023-02-25T20:17:26.836Z,15.15
2023-02-25T20:19:53.471Z,15.10
2023-02-25T20:22:23.960Z,15.14
2023-02-25T20:24:51.301Z,14.67
2023-02-25T20:27:18.266Z,15.16
2023-02-25T20:29:45.095Z,14.76
2023-02-25T20:32:11.924Z,15.27
2023-02-25T20:34:39.034Z,15.17
2023-02-25T20:37:12.439Z,15.14
2023-02-25T20:39:39.014Z,15.16
2023-02-25T20:42:15.288Z,15.16
2023-02-25T20:44:42.202Z,15.16
2023-02-25T20:47:16.676Z,15.14
2023-02-25T20:49:43.413Z,15.42
2023-02-25T20:52:13.666Z,15.45
2023-02-25T20:54:40.447Z,15.20
2023-02-25T20:57:08.946Z,15.30
2023-02-25T20:59:35.572Z,15.36
2023-02-25T21:02:02.241Z,15.51
2023-02-25T21:04:28.887Z,15.00
2023-02-25T21:06:55.544Z,15.42
2023-02-25T21:09:22.272Z,15.42
2023-02-25T21:11:48.851Z,15.22
2023-02-25T21:14:15.718Z,15.22
2023-02-25T21:16:42.569Z,15.41
2023-02-25T21:19:09.310Z,15.09
2023-02-25T21:21:39.775Z,15.25
2023-02-25T21:24:10.361Z,14.91
2023-02-25T21:26:39.380Z,15.20
2023-02-25T21:29:06.889Z,15.37
2023-02-25T21:31:34.102Z,15.71
2023-02-25T21:34:02.133Z,15.84
2023-02-25T21:36:29.405Z,15.58
2023-02-25T21:38:56.221Z,15.79
2023-02-25T21:41:23.146Z,15.24
2023-02-25T21:43:52.446Z,15.26
2023-02-25T21:46:19.549Z,15.82
2023-02-25T21:48:47.459Z,15.92
2023-02-25T21:51:16.859Z,15.72
2023-02-25T21:53:43.553Z,15.86
2023-02-25T21:56:13.640Z,15.82
2023-02-25T21:58:40.298Z,15.97
2023-02-25T22:01:30.520Z,15.86
2023-02-25T22:03:57.670Z,15.90
2023-02-25T22:06:26.509Z,15.93
2023-02-25T22:08:54.087Z,15.82
2023-02-25T22:11:29.597Z,15.40
2023-02-25T22:13:57.884Z,15.76
2023-02-25T22:16:24.932Z,15.68
2023-02-25T22:18:52.406Z,15.50
2023-02-25T22:21:30.302Z,15.86
2023-02-25T22:24:02.140Z,16.33
2023-02-25T22:26:31.714Z,16.14
2023-02-25T22:29:04.819Z,15.85
2023-02-25T22:31:32.858Z,15.85
2023-02-25T22:34:00.718Z,15.93
2023-02-25T22:36:27.853Z,15.31
2023-02-25T22:38:55.846Z,14.93
2023-02-25T22:41:28.268Z,15.48
2023-02-25T22:43:55.659Z,15.58
2023-02-25T22:46:28.084Z,15.62
2023-02-25T22:48:55.412Z,15.51
2023-02-25T22:51:26.915Z,15.60
2023-02-25T22:53:55.104Z,15.37
2023-02-25T22:56:22.478Z,15.44
2023-02-25T22:58:49.409Z,15.16
2023-02-25T23:01:19.311Z,15.35
2023-02-25T23:03:47.831Z,15.22
2023-02-25T23:06:16.636Z,15.21
2023-02-25T23:08:44.033Z,15.52
2023-02-25T23:11:11.720Z,15.26
2023-02-25T23:13:46.029Z,15.56
2023-02-25T23:16:17.593Z,15.17
2023-02-25T23:18:45.622Z,15.44
2023-02-25T23:21:19.034Z,15.67
2023-02-25T23:23:51.407Z,15.37
2023-02-25T23:26:21.535Z,15.41
2023-02-25T23:28:48.798Z,15.65
2023-02-25T23:31:26.923Z,15.09
2023-02-25T23:33:58.529Z,14.94
2023-02-25T23:36:27.066Z,15.08
2023-02-25T23:38:58.594Z,15.33
2023-02-25T23:41:26.459Z,15.07
2023-02-25T23:43:54.665Z,14.83
2023-02-25T23:46:22.128Z,15.03
2023-02-25T23:48:49.143Z,15.23
2023-02-25T23:51:15.906Z,15.11
2023-02-25T23:53:42.587Z,15.12
2023-02-25T23:56:11.413Z,14.72
2023-02-25T23:58:38.244Z,15.14
